Pagrindinis puslapis
METAR-TAF:

METAR-TAF

Oro uostai :

Madridas, Ispanija

platuma: 40-27N, ilguma: 003-33W, Aukštis: 609 m

Dabartinis oras

Ataskaita buvo paskelbta 59 minutes, ne 04:00 UTC
Vėjas 2 kt iš Šiaurės
Temperatūra 1°C
Drėgmė 86%
Slėgis 1030 hPa
Matomumas 10 km arba daugiau
nėra debesų žemiau 1500 m ir nėra kamuolinių lietaus debesų

METAR: LEMD 220400Z 36002KT CAVOK 01/M01 Q1030 NOSIG

Laikas: 05:59 (04:59 UTC)

Prognozė

Ataskaita buvo paskelbta 5 valandos ir 59 minutes, ne 23:00 UTC
Prognozė galioja nuo 22 metu 00 UTC su 23 metu 06 UTC
Vėjas 4 kt nuo kintamojo kryptimis
Matomumas 10 km arba daugiau
nėra debesų žemiau 1500 m ir nėra kamuolinių lietaus debesų
Laikinai
nuo 22 metu 00 UTC su 22 metu 07 UTC
Vėjas 7 kt iš Šiaurės/Šiaurės Rytų
Laikinai
nuo 22 metu 19 UTC su 23 metu 06 UTC
Vėjas 6 kt iš Šiaurės/Šiaurės Rytų

TAF: LEMD 212300Z 2200/2306 VRB04KT CAVOK TX21/2216Z TNM01/2206Z TEMPO 2200/2207 02007KT TEMPO 2219/2306 02006KT

Orai ataskaitas ir orų prognozės (METAR, TAF).

turimą stotys yra geltonos ir raudonos taškus žemėlapyje.

Perkelti pele per norėdami pamatyti stoties vardą.

Tada spustelėkite, norėdami matyti oro stebėjimo ir prognozės.

Norėdami pakeisti žemėlapį: spustelėkite ant žalios mygtukų su juodo kryžiaus žemyn,; žalią mygtuką su brūkšneliu, jei norite nutolinti; arba žalių rodyklių gretimoms žemėlapius.


METAR-TAF: